sensor_id;sensor_type;location;lat;lon;timestamp;temperature;humidity
46898;DHT22;32646;50.958;6.258;2023-04-25T00:00:53;5.70;99.90
46898;DHT22;32646;50.958;6.258;2023-04-25T00:03:20;5.60;99.90
46898;DHT22;32646;50.958;6.258;2023-04-25T00:05:47;5.50;99.90
46898;DHT22;32646;50.958;6.258;2023-04-25T00:08:13;5.50;99.90
46898;DHT22;32646;50.958;6.258;2023-04-25T00:10:40;5.50;99.90
46898;DHT22;32646;50.958;6.258;2023-04-25T00:13:06;5.40;99.90
46898;DHT22;32646;50.958;6.258;2023-04-25T00:15:33;5.40;99.90
46898;DHT22;32646;50.958;6.258;2023-04-25T00:18:00;5.40;99.90
46898;DHT22;32646;50.958;6.258;2023-04-25T00:20:26;5.40;99.90
46898;DHT22;32646;50.958;6.258;2023-04-25T00:22:53;5.50;99.90
46898;DHT22;32646;50.958;6.258;2023-04-25T00:25:20;5.50;99.90
46898;DHT22;32646;50.958;6.258;2023-04-25T00:27:46;5.50;99.90
46898;DHT22;32646;50.958;6.258;2023-04-25T00:30:13;5.50;99.90
46898;DHT22;32646;50.958;6.258;2023-04-25T00:32:40;5.40;99.90
46898;DHT22;32646;50.958;6.258;2023-04-25T00:35:07;5.40;99.90
46898;DHT22;32646;50.958;6.258;2023-04-25T00:37:34;5.50;99.90
46898;DHT22;32646;50.958;6.258;2023-04-25T00:40:00;5.50;99.90
46898;DHT22;32646;50.958;6.258;2023-04-25T00:42:28;5.50;99.90
46898;DHT22;32646;50.958;6.258;2023-04-25T00:44:54;5.40;99.90
46898;DHT22;32646;50.958;6.258;2023-04-25T00:47:22;5.40;99.90
46898;DHT22;32646;50.958;6.258;2023-04-25T00:49:50;5.30;99.90
46898;DHT22;32646;50.958;6.258;2023-04-25T00:52:16;5.30;99.90
46898;DHT22;32646;50.958;6.258;2023-04-25T00:54:43;5.30;99.90
46898;DHT22;32646;50.958;6.258;2023-04-25T00:57:09;5.30;99.90
46898;DHT22;32646;50.958;6.258;2023-04-25T00:59:37;5.30;99.90
46898;DHT22;32646;50.958;6.258;2023-04-25T01:02:04;5.20;99.90
46898;DHT22;32646;50.958;6.258;2023-04-25T01:04:31;5.20;99.90
46898;DHT22;32646;50.958;6.258;2023-04-25T01:06:58;5.20;99.90
46898;DHT22;32646;50.958;6.258;2023-04-25T01:09:24;5.20;99.90
46898;DHT22;32646;50.958;6.258;2023-04-25T01:11:52;5.20;99.90
46898;DHT22;32646;50.958;6.258;2023-04-25T01:14:18;5.20;99.90
46898;DHT22;32646;50.958;6.258;2023-04-25T01:16:45;5.20;99.90
46898;DHT22;32646;50.958;6.258;2023-04-25T01:19:11;5.10;99.90
46898;DHT22;32646;50.958;6.258;2023-04-25T01:21:42;5.00;99.90
46898;DHT22;32646;50.958;6.258;2023-04-25T01:24:09;5.10;99.90
46898;DHT22;32646;50.958;6.258;2023-04-25T01:26:36;5.10;99.90
46898;DHT22;32646;50.958;6.258;2023-04-25T01:29:04;5.20;99.90
46898;DHT22;32646;50.958;6.258;2023-04-25T01:31:32;5.30;99.90
46898;DHT22;32646;50.958;6.258;2023-04-25T01:33:59;5.30;99.90
46898;DHT22;32646;50.958;6.258;2023-04-25T01:36:26;5.40;99.90
46898;DHT22;32646;50.958;6.258;2023-04-25T01:38:53;5.40;99.90
46898;DHT22;32646;50.958;6.258;2023-04-25T01:41:19;5.50;99.90
46898;DHT22;32646;50.958;6.258;2023-04-25T01:43:46;5.50;99.90
46898;DHT22;32646;50.958;6.258;2023-04-25T01:46:12;5.50;99.90
46898;DHT22;32646;50.958;6.258;2023-04-25T01:48:39;5.50;99.90
46898;DHT22;32646;50.958;6.258;2023-04-25T01:51:06;5.60;99.90
46898;DHT22;32646;50.958;6.258;2023-04-25T01:53:33;5.50;99.90
46898;DHT22;32646;50.958;6.258;2023-04-25T01:55:59;5.60;99.90
46898;DHT22;32646;50.958;6.258;2023-04-25T01:58:26;5.60;99.90
46898;DHT22;32646;50.958;6.258;2023-04-25T02:00:53;5.70;99.90
46898;DHT22;32646;50.958;6.258;2023-04-25T02:03:19;5.70;99.90
46898;DHT22;32646;50.958;6.258;2023-04-25T02:05:46;5.80;99.90
46898;DHT22;32646;50.958;6.258;2023-04-25T02:08:13;5.80;99.90
46898;DHT22;32646;50.958;6.258;2023-04-25T02:10:39;5.80;99.90
46898;DHT22;32646;50.958;6.258;2023-04-25T02:13:06;5.80;99.90
46898;DHT22;32646;50.958;6.258;2023-04-25T02:15:32;5.80;99.90
46898;DHT22;32646;50.958;6.258;2023-04-25T02:17:59;5.80;99.90
46898;DHT22;32646;50.958;6.258;2023-04-25T02:20:26;5.80;99.90
46898;DHT22;32646;50.958;6.258;2023-04-25T02:22:53;5.80;99.90
46898;DHT22;32646;50.958;6.258;2023-04-25T02:25:20;5.80;99.90
46898;DHT22;32646;50.958;6.258;2023-04-25T02:27:47;5.90;99.90
46898;DHT22;32646;50.958;6.258;2023-04-25T02:30:14;5.90;99.90
46898;DHT22;32646;50.958;6.258;2023-04-25T02:32:41;5.90;99.90
46898;DHT22;32646;50.958;6.258;2023-04-25T02:35:08;5.90;99.90
46898;DHT22;32646;50.958;6.258;2023-04-25T02:37:38;5.80;99.90
46898;DHT22;32646;50.958;6.258;2023-04-25T02:40:05;5.80;99.90
46898;DHT22;32646;50.958;6.258;2023-04-25T02:42:32;5.80;99.90
46898;DHT22;32646;50.958;6.258;2023-04-25T02:44:59;5.80;99.90
46898;DHT22;32646;50.958;6.258;2023-04-25T02:47:25;5.90;99.90
46898;DHT22;32646;50.958;6.258;2023-04-25T02:49:52;5.80;99.90
46898;DHT22;32646;50.958;6.258;2023-04-25T02:52:19;5.70;99.90
46898;DHT22;32646;50.958;6.258;2023-04-25T02:54:45;5.70;99.90
46898;DHT22;32646;50.958;6.258;2023-04-25T02:57:12;5.70;99.90
46898;DHT22;32646;50.958;6.258;2023-04-25T02:59:38;5.70;99.90
46898;DHT22;32646;50.958;6.258;2023-04-25T03:02:05;5.70;99.90
46898;DHT22;32646;50.958;6.258;2023-04-25T03:04:31;5.70;99.90
46898;DHT22;32646;50.958;6.258;2023-04-25T03:06:58;5.80;99.90
46898;DHT22;32646;50.958;6.258;2023-04-25T03:09:25;5.70;99.90
46898;DHT22;32646;50.958;6.258;2023-04-25T03:11:51;5.70;99.90
46898;DHT22;32646;50.958;6.258;2023-04-25T03:14:18;5.70;99.90
46898;DHT22;32646;50.958;6.258;2023-04-25T03:16:44;5.70;99.90
46898;DHT22;32646;50.958;6.258;2023-04-25T03:19:11;5.70;99.90
46898;DHT22;32646;50.958;6.258;2023-04-25T03:21:37;5.80;99.90
46898;DHT22;32646;50.958;6.258;2023-04-25T03:24:04;5.70;99.90
46898;DHT22;32646;50.958;6.258;2023-04-25T03:26:31;5.70;99.90
46898;DHT22;32646;50.958;6.258;2023-04-25T03:28:57;5.70;99.90
46898;DHT22;32646;50.958;6.258;2023-04-25T03:31:24;5.70;99.90
46898;DHT22;32646;50.958;6.258;2023-04-25T03:33:50;5.60;99.90
46898;DHT22;32646;50.958;6.258;2023-04-25T03:36:17;5.60;99.90
46898;DHT22;32646;50.958;6.258;2023-04-25T03:38:44;5.60;99.90
46898;DHT22;32646;50.958;6.258;2023-04-25T03:41:11;5.60;99.90
46898;DHT22;32646;50.958;6.258;2023-04-25T03:43:38;5.60;99.90
46898;DHT22;32646;50.958;6.258;2023-04-25T03:46:04;5.60;99.90
46898;DHT22;32646;50.958;6.258;2023-04-25T03:48:31;5.70;99.90
46898;DHT22;32646;50.958;6.258;2023-04-25T03:50:57;5.60;99.90
46898;DHT22;32646;50.958;6.258;2023-04-25T03:53:24;5.60;99.90
46898;DHT22;32646;50.958;6.258;2023-04-25T03:55:51;5.60;99.90
46898;DHT22;32646;50.958;6.258;2023-04-25T03:58:18;5.60;99.90
46898;DHT22;32646;50.958;6.258;2023-04-25T04:00:44;5.60;99.90
46898;DHT22;32646;50.958;6.258;2023-04-25T04:03:11;5.60;99.90
46898;DHT22;32646;50.958;6.258;2023-04-25T04:05:40;5.60;99.90
46898;DHT22;32646;50.958;6.258;2023-04-25T04:08:09;5.50;99.90
46898;DHT22;32646;50.958;6.258;2023-04-25T04:10:35;5.60;99.90
46898;DHT22;32646;50.958;6.258;2023-04-25T04:13:02;5.60;99.90
46898;DHT22;32646;50.958;6.258;2023-04-25T04:15:29;5.60;99.90
46898;DHT22;32646;50.958;6.258;2023-04-25T04:17:56;5.50;99.90
46898;DHT22;32646;50.958;6.258;2023-04-25T04:20:22;5.60;99.90
46898;DHT22;32646;50.958;6.258;2023-04-25T04:22:49;5.60;99.90
46898;DHT22;32646;50.958;6.258;2023-04-25T04:25:15;5.60;99.90
46898;DHT22;32646;50.958;6.258;2023-04-25T04:27:42;5.70;99.90
46898;DHT22;32646;50.958;6.258;2023-04-25T04:30:09;5.60;99.90
46898;DHT22;32646;50.958;6.258;2023-04-25T04:32:35;5.60;99.90
46898;DHT22;32646;50.958;6.258;2023-04-25T04:35:02;5.70;99.90
46898;DHT22;32646;50.958;6.258;2023-04-25T04:37:28;5.60;99.90
46898;DHT22;32646;50.958;6.258;2023-04-25T04:39:55;5.70;99.90
46898;DHT22;32646;50.958;6.258;2023-04-25T04:42:22;5.70;99.90
46898;DHT22;32646;50.958;6.258;2023-04-25T04:44:48;5.70;99.90
46898;DHT22;32646;50.958;6.258;2023-04-25T04:47:15;5.70;99.90
46898;DHT22;32646;50.958;6.258;2023-04-25T04:49:41;5.70;99.90
46898;DHT22;32646;50.958;6.258;2023-04-25T04:52:08;5.80;99.90
46898;DHT22;32646;50.958;6.258;2023-04-25T04:54:34;5.80;99.90
46898;DHT22;32646;50.958;6.258;2023-04-25T04:57:01;5.80;99.90
46898;DHT22;32646;50.958;6.258;2023-04-25T04:59:27;5.70;99.90
46898;DHT22;32646;50.958;6.258;2023-04-25T05:01:54;5.70;99.90
46898;DHT22;32646;50.958;6.258;2023-04-25T05:04:21;5.70;99.90
46898;DHT22;32646;50.958;6.258;2023-04-25T05:06:47;5.70;99.90
46898;DHT22;32646;50.958;6.258;2023-04-25T05:09:14;5.80;99.90
46898;DHT22;32646;50.958;6.258;2023-04-25T05:11:41;5.80;99.90
46898;DHT22;32646;50.958;6.258;2023-04-25T05:14:07;5.90;99.90
46898;DHT22;32646;50.958;6.258;2023-04-25T05:16:34;5.90;99.90
46898;DHT22;32646;50.958;6.258;2023-04-25T05:19:00;6.10;99.90
46898;DHT22;32646;50.958;6.258;2023-04-25T05:21:27;6.10;99.90
46898;DHT22;32646;50.958;6.258;2023-04-25T05:23:54;6.10;99.90
46898;DHT22;32646;50.958;6.258;2023-04-25T05:26:20;6.20;99.90
46898;DHT22;32646;50.958;6.258;2023-04-25T05:28:47;6.30;99.90
46898;DHT22;32646;50.958;6.258;2023-04-25T05:31:14;6.30;99.90
46898;DHT22;32646;50.958;6.258;2023-04-25T05:33:40;6.40;99.90
46898;DHT22;32646;50.958;6.258;2023-04-25T05:36:07;6.40;99.90
46898;DHT22;32646;50.958;6.258;2023-04-25T05:38:34;6.50;99.90
46898;DHT22;32646;50.958;6.258;2023-04-25T05:41:00;6.50;99.90
46898;DHT22;32646;50.958;6.258;2023-04-25T05:43:27;6.60;99.90
46898;DHT22;32646;50.958;6.258;2023-04-25T05:45:53;6.60;99.90
46898;DHT22;32646;50.958;6.258;2023-04-25T05:48:20;6.60;99.90
46898;DHT22;32646;50.958;6.258;2023-04-25T05:50:47;6.60;99.90
46898;DHT22;32646;50.958;6.258;2023-04-25T05:53:13;6.60;99.90
46898;DHT22;32646;50.958;6.258;2023-04-25T05:55:40;6.60;99.90
46898;DHT22;32646;50.958;6.258;2023-04-25T05:58:06;6.70;99.90
46898;DHT22;32646;50.958;6.258;2023-04-25T06:00:33;6.80;99.90
46898;DHT22;32646;50.958;6.258;2023-04-25T06:02:59;6.70;99.90
46898;DHT22;32646;50.958;6.258;2023-04-25T06:05:26;6.80;99.90
46898;DHT22;32646;50.958;6.258;2023-04-25T06:07:53;6.90;99.90
46898;DHT22;32646;50.958;6.258;2023-04-25T06:10:21;7.00;99.90
46898;DHT22;32646;50.958;6.258;2023-04-25T06:12:47;7.10;99.90
46898;DHT22;32646;50.958;6.258;2023-04-25T06:15:14;7.20;99.90
46898;DHT22;32646;50.958;6.258;2023-04-25T06:17:54;7.20;99.90
46898;DHT22;32646;50.958;6.258;2023-04-25T06:20:21;7.00;99.90
46898;DHT22;32646;50.958;6.258;2023-04-25T06:22:48;7.00;99.90
46898;DHT22;32646;50.958;6.258;2023-04-25T06:25:15;7.10;99.90
46898;DHT22;32646;50.958;6.258;2023-04-25T06:27:41;7.10;99.90
46898;DHT22;32646;50.958;6.258;2023-04-25T06:30:08;7.20;99.90
46898;DHT22;32646;50.958;6.258;2023-04-25T06:32:35;7.20;99.90
46898;DHT22;32646;50.958;6.258;2023-04-25T06:35:01;7.20;99.90
46898;DHT22;32646;50.958;6.258;2023-04-25T06:37:28;7.20;99.90
46898;DHT22;32646;50.958;6.258;2023-04-25T06:39:54;7.40;99.90
46898;DHT22;32646;50.958;6.258;2023-04-25T06:42:21;7.40;99.90
46898;DHT22;32646;50.958;6.258;2023-04-25T06:44:47;7.60;99.90
46898;DHT22;32646;50.958;6.258;2023-04-25T06:47:14;7.70;99.90
46898;DHT22;32646;50.958;6.258;2023-04-25T06:49:41;7.80;99.90
46898;DHT22;32646;50.958;6.258;2023-04-25T06:52:08;7.80;99.90
46898;DHT22;32646;50.958;6.258;2023-04-25T06:54:34;7.90;99.90
46898;DHT22;32646;50.958;6.258;2023-04-25T06:57:01;8.00;99.90
46898;DHT22;32646;50.958;6.258;2023-04-25T06:59:28;8.00;99.90
46898;DHT22;32646;50.958;6.258;2023-04-25T07:01:54;7.90;99.90
46898;DHT22;32646;50.958;6.258;2023-04-25T07:04:21;7.90;99.90
46898;DHT22;32646;50.958;6.258;2023-04-25T07:06:48;7.80;99.90
46898;DHT22;32646;50.958;6.258;2023-04-25T07:09:14;7.90;99.90
46898;DHT22;32646;50.958;6.258;2023-04-25T07:11:41;8.00;99.90
46898;DHT22;32646;50.958;6.258;2023-04-25T07:14:07;8.30;99.90
46898;DHT22;32646;50.958;6.258;2023-04-25T07:16:34;8.40;99.90
46898;DHT22;32646;50.958;6.258;2023-04-25T07:19:00;8.60;99.90
46898;DHT22;32646;50.958;6.258;2023-04-25T07:21:27;8.80;99.90
46898;DHT22;32646;50.958;6.258;2023-04-25T07:23:54;8.60;99.90
46898;DHT22;32646;50.958;6.258;2023-04-25T07:26:20;8.80;99.90
46898;DHT22;32646;50.958;6.258;2023-04-25T07:28:47;8.60;99.90
46898;DHT22;32646;50.958;6.258;2023-04-25T07:31:14;8.60;99.90
46898;DHT22;32646;50.958;6.258;2023-04-25T07:33:40;8.70;99.90
46898;DHT22;32646;50.958;6.258;2023-04-25T07:36:07;8.80;99.90
46898;DHT22;32646;50.958;6.258;2023-04-25T07:38:34;8.90;99.90
46898;DHT22;32646;50.958;6.258;2023-04-25T07:41:00;8.80;99.90
46898;DHT22;32646;50.958;6.258;2023-04-25T07:43:27;8.80;99.90
46898;DHT22;32646;50.958;6.258;2023-04-25T07:45:53;8.80;99.90
46898;DHT22;32646;50.958;6.258;2023-04-25T07:48:20;8.90;99.90
46898;DHT22;32646;50.958;6.258;2023-04-25T07:50:47;8.90;99.90
46898;DHT22;32646;50.958;6.258;2023-04-25T07:53:13;9.10;99.90
46898;DHT22;32646;50.958;6.258;2023-04-25T07:55:40;8.90;99.90
46898;DHT22;32646;50.958;6.258;2023-04-25T07:58:07;8.90;98.70
46898;DHT22;32646;50.958;6.258;2023-04-25T08:00:34;8.80;98.90
46898;DHT22;32646;50.958;6.258;2023-04-25T08:03:00;9.10;97.80
46898;DHT22;32646;50.958;6.258;2023-04-25T08:05:27;9.10;97.80
46898;DHT22;32646;50.958;6.258;2023-04-25T08:07:54;9.30;97.90
46898;DHT22;32646;50.958;6.258;2023-04-25T08:10:21;9.20;99.80
46898;DHT22;32646;50.958;6.258;2023-04-25T08:12:47;9.20;97.20
46898;DHT22;32646;50.958;6.258;2023-04-25T08:15:14;9.20;99.90
46898;DHT22;32646;50.958;6.258;2023-04-25T08:17:41;9.30;98.00
46898;DHT22;32646;50.958;6.258;2023-04-25T08:20:08;9.20;93.80
46898;DHT22;32646;50.958;6.258;2023-04-25T08:22:34;9.20;95.20
46898;DHT22;32646;50.958;6.258;2023-04-25T08:25:01;9.20;93.60
46898;DHT22;32646;50.958;6.258;2023-04-25T08:27:28;9.40;92.30
46898;DHT22;32646;50.958;6.258;2023-04-25T08:29:54;9.60;91.50
46898;DHT22;32646;50.958;6.258;2023-04-25T08:32:21;9.50;95.20
46898;DHT22;32646;50.958;6.258;2023-04-25T08:34:47;9.60;94.00
46898;DHT22;32646;50.958;6.258;2023-04-25T08:37:14;9.80;92.60
46898;DHT22;32646;50.958;6.258;2023-04-25T08:39:40;9.70;93.70
46898;DHT22;32646;50.958;6.258;2023-04-25T08:42:07;10.00;92.70
46898;DHT22;32646;50.958;6.258;2023-04-25T08:44:34;10.30;90.50
46898;DHT22;32646;50.958;6.258;2023-04-25T08:47:04;10.20;90.90
46898;DHT22;32646;50.958;6.258;2023-04-25T08:49:34;10.00;92.50
46898;DHT22;32646;50.958;6.258;2023-04-25T08:52:03;9.80;91.30
46898;DHT22;32646;50.958;6.258;2023-04-25T08:54:31;10.00;92.40
46898;DHT22;32646;50.958;6.258;2023-04-25T08:57:02;10.40;93.50
46898;DHT22;32646;50.958;6.258;2023-04-25T08:59:30;11.00;93.10
46898;DHT22;32646;50.958;6.258;2023-04-25T09:01:57;11.30;83.50
46898;DHT22;32646;50.958;6.258;2023-04-25T09:04:24;11.20;78.80
46898;DHT22;32646;50.958;6.258;2023-04-25T09:06:51;10.90;84.30
46898;DHT22;32646;50.958;6.258;2023-04-25T09:09:17;10.70;85.00
46898;DHT22;32646;50.958;6.258;2023-04-25T09:11:44;10.10;89.20
46898;DHT22;32646;50.958;6.258;2023-04-25T09:14:15;9.60;92.90
46898;DHT22;32646;50.958;6.258;2023-04-25T09:19:31;9.60;93.20
46898;DHT22;32646;50.958;6.258;2023-04-25T09:22:06;9.80;93.60
46898;DHT22;32646;50.958;6.258;2023-04-25T09:24:38;10.10;93.10
46898;DHT22;32646;50.958;6.258;2023-04-25T09:27:17;10.40;91.70
46898;DHT22;32646;50.958;6.258;2023-04-25T09:29:44;10.60;93.10
46898;DHT22;32646;50.958;6.258;2023-04-25T09:32:18;10.70;89.10
46898;DHT22;32646;50.958;6.258;2023-04-25T09:34:47;10.90;86.70
46898;DHT22;32646;50.958;6.258;2023-04-25T09:37:18;10.90;88.80
46898;DHT22;32646;50.958;6.258;2023-04-25T09:39:45;10.90;82.40
46898;DHT22;32646;50.958;6.258;2023-04-25T09:42:12;10.70;88.80
46898;DHT22;32646;50.958;6.258;2023-04-25T09:44:43;10.70;84.10
46898;DHT22;32646;50.958;6.258;2023-04-25T09:47:11;10.60;86.60
46898;DHT22;32646;50.958;6.258;2023-04-25T09:49:42;10.50;88.70
46898;DHT22;32646;50.958;6.258;2023-04-25T09:52:13;10.80;83.40
46898;DHT22;32646;50.958;6.258;2023-04-25T09:54:40;10.90;86.00
46898;DHT22;32646;50.958;6.258;2023-04-25T09:57:13;11.30;82.70
46898;DHT22;32646;50.958;6.258;2023-04-25T10:02:13;11.40;81.60
46898;DHT22;32646;50.958;6.258;2023-04-25T10:04:41;11.80;81.00
46898;DHT22;32646;50.958;6.258;2023-04-25T10:07:09;11.90;80.50
46898;DHT22;32646;50.958;6.258;2023-04-25T10:09:37;12.30;75.10
46898;DHT22;32646;50.958;6.258;2023-04-25T10:12:05;12.50;73.50
46898;DHT22;32646;50.958;6.258;2023-04-25T10:14:32;13.50;78.90
46898;DHT22;32646;50.958;6.258;2023-04-25T10:16:59;13.60;71.40
46898;DHT22;32646;50.958;6.258;2023-04-25T10:19:27;13.00;71.90
46898;DHT22;32646;50.958;6.258;2023-04-25T10:24:29;12.90;72.50
46898;DHT22;32646;50.958;6.258;2023-04-25T10:26:56;12.20;75.50
46898;DHT22;32646;50.958;6.258;2023-04-25T10:29:25;12.00;73.50
46898;DHT22;32646;50.958;6.258;2023-04-25T10:31:52;12.00;79.00
46898;DHT22;32646;50.958;6.258;2023-04-25T10:34:24;13.00;73.10
46898;DHT22;32646;50.958;6.258;2023-04-25T10:36:52;13.00;70.80
46898;DHT22;32646;50.958;6.258;2023-04-25T10:39:23;13.20;68.90
46898;DHT22;32646;50.958;6.258;2023-04-25T10:41:56;12.70;69.30
46898;DHT22;32646;50.958;6.258;2023-04-25T10:44:31;12.10;73.90
46898;DHT22;32646;50.958;6.258;2023-04-25T10:46:59;11.90;71.40
46898;DHT22;32646;50.958;6.258;2023-04-25T10:49:35;11.70;74.50
46898;DHT22;32646;50.958;6.258;2023-04-25T10:52:25;11.60;74.40
46898;DHT22;32646;50.958;6.258;2023-04-25T10:54:54;11.50;75.50
46898;DHT22;32646;50.958;6.258;2023-04-25T10:57:41;11.40;75.20
46898;DHT22;32646;50.958;6.258;2023-04-25T11:00:20;11.40;75.60
46898;DHT22;32646;50.958;6.258;2023-04-25T11:02:52;11.30;73.70
46898;DHT22;32646;50.958;6.258;2023-04-25T11:07:53;11.10;74.70
46898;DHT22;32646;50.958;6.258;2023-04-25T11:10:27;11.10;77.60
46898;DHT22;32646;50.958;6.258;2023-04-25T11:12:54;11.30;78.30
46898;DHT22;32646;50.958;6.258;2023-04-25T11:15:20;11.70;76.50
46898;DHT22;32646;50.958;6.258;2023-04-25T11:17:47;12.70;72.90
46898;DHT22;32646;50.958;6.258;2023-04-25T11:20:14;14.10;73.50
46898;DHT22;32646;50.958;6.258;2023-04-25T11:22:41;14.90;67.90
46898;DHT22;32646;50.958;6.258;2023-04-25T11:25:09;15.30;67.90
46898;DHT22;32646;50.958;6.258;2023-04-25T11:27:57;15.60;62.60
46898;DHT22;32646;50.958;6.258;2023-04-25T11:30:25;14.90;63.10
46898;DHT22;32646;50.958;6.258;2023-04-25T11:32:52;13.60;67.50
46898;DHT22;32646;50.958;6.258;2023-04-25T11:35:20;13.70;67.20
46898;DHT22;32646;50.958;6.258;2023-04-25T11:37:46;14.00;66.50
46898;DHT22;32646;50.958;6.258;2023-04-25T11:40:13;13.60;64.70
46898;DHT22;32646;50.958;6.258;2023-04-25T11:42:44;14.00;69.40
46898;DHT22;32646;50.958;6.258;2023-04-25T11:45:11;14.40;62.40
46898;DHT22;32646;50.958;6.258;2023-04-25T11:47:38;14.40;63.20
46898;DHT22;32646;50.958;6.258;2023-04-25T11:50:07;15.30;66.40
46898;DHT22;32646;50.958;6.258;2023-04-25T11:52:46;15.30;63.50
46898;DHT22;32646;50.958;6.258;2023-04-25T11:55:15;14.40;64.80
46898;DHT22;32646;50.958;6.258;2023-04-25T11:57:43;14.10;64.90
46898;DHT22;32646;50.958;6.258;2023-04-25T12:00:15;14.20;63.70
46898;DHT22;32646;50.958;6.258;2023-04-25T12:02:52;14.80;69.90
46898;DHT22;32646;50.958;6.258;2023-04-25T12:05:20;14.90;62.20
46898;DHT22;32646;50.958;6.258;2023-04-25T12:08:09;15.10;66.40
46898;DHT22;32646;50.958;6.258;2023-04-25T12:10:38;15.70;61.80
46898;DHT22;32646;50.958;6.258;2023-04-25T12:13:19;15.30;63.20
46898;DHT22;32646;50.958;6.258;2023-04-25T12:15:45;14.50;63.10
46898;DHT22;32646;50.958;6.258;2023-04-25T12:18:12;13.70;65.40
46898;DHT22;32646;50.958;6.258;2023-04-25T12:20:39;13.20;63.70
46898;DHT22;32646;50.958;6.258;2023-04-25T12:23:06;12.60;64.70
46898;DHT22;32646;50.958;6.258;2023-04-25T12:25:41;12.50;70.10
46898;DHT22;32646;50.958;6.258;2023-04-25T12:28:17;12.40;70.80
46898;DHT22;32646;50.958;6.258;2023-04-25T12:30:56;12.10;71.40
46898;DHT22;32646;50.958;6.258;2023-04-25T12:33:24;11.80;70.90
46898;DHT22;32646;50.958;6.258;2023-04-25T12:35:52;11.60;71.90
46898;DHT22;32646;50.958;6.258;2023-04-25T12:40:53;11.90;73.70
46898;DHT22;32646;50.958;6.258;2023-04-25T12:43:20;12.10;71.90
46898;DHT22;32646;50.958;6.258;2023-04-25T12:45:51;12.60;70.20
46898;DHT22;32646;50.958;6.258;2023-04-25T12:48:18;13.20;71.30
46898;DHT22;32646;50.958;6.258;2023-04-25T12:50:45;13.10;70.10
46898;DHT22;32646;50.958;6.258;2023-04-25T12:53:12;13.30;71.10
46898;DHT22;32646;50.958;6.258;2023-04-25T12:55:38;12.90;68.40
46898;DHT22;32646;50.958;6.258;2023-04-25T12:58:05;12.90;69.90
46898;DHT22;32646;50.958;6.258;2023-04-25T13:00:31;13.00;68.80
46898;DHT22;32646;50.958;6.258;2023-04-25T13:02:58;12.50;71.60
46898;DHT22;32646;50.958;6.258;2023-04-25T13:05:25;12.10;73.10
46898;DHT22;32646;50.958;6.258;2023-04-25T13:07:52;12.10;70.70
46898;DHT22;32646;50.958;6.258;2023-04-25T13:10:18;11.80;80.00
46898;DHT22;32646;50.958;6.258;2023-04-25T13:12:45;12.20;72.80
46898;DHT22;32646;50.958;6.258;2023-04-25T13:15:11;12.80;69.70
46898;DHT22;32646;50.958;6.258;2023-04-25T13:17:38;12.90;68.30
46898;DHT22;32646;50.958;6.258;2023-04-25T13:20:05;12.90;70.40
46898;DHT22;32646;50.958;6.258;2023-04-25T13:22:32;12.40;69.40
46898;DHT22;32646;50.958;6.258;2023-04-25T13:24:59;12.10;67.60
46898;DHT22;32646;50.958;6.258;2023-04-25T13:27:25;11.80;68.50
46898;DHT22;32646;50.958;6.258;2023-04-25T13:29:52;11.50;67.00
46898;DHT22;32646;50.958;6.258;2023-04-25T13:32:18;11.40;68.70
46898;DHT22;32646;50.958;6.258;2023-04-25T13:34:45;11.20;71.20
46898;DHT22;32646;50.958;6.258;2023-04-25T13:37:11;10.90;72.30
46898;DHT22;32646;50.958;6.258;2023-04-25T13:39:38;10.60;74.30
46898;DHT22;32646;50.958;6.258;2023-04-25T13:42:04;10.50;74.50
46898;DHT22;32646;50.958;6.258;2023-04-25T13:44:31;10.40;76.80
46898;DHT22;32646;50.958;6.258;2023-04-25T13:46:57;10.50;76.20
46898;DHT22;32646;50.958;6.258;2023-04-25T13:49:24;10.30;76.10
46898;DHT22;32646;50.958;6.258;2023-04-25T13:51:51;10.40;77.60
46898;DHT22;32646;50.958;6.258;2023-04-25T13:54:17;10.50;76.30
46898;DHT22;32646;50.958;6.258;2023-04-25T13:56:44;10.50;77.40
46898;DHT22;32646;50.958;6.258;2023-04-25T13:59:10;10.60;76.40
46898;DHT22;32646;50.958;6.258;2023-04-25T14:01:37;10.90;76.90
46898;DHT22;32646;50.958;6.258;2023-04-25T14:04:03;11.10;75.90
46898;DHT22;32646;50.958;6.258;2023-04-25T14:06:31;11.60;74.20
46898;DHT22;32646;50.958;6.258;2023-04-25T14:08:58;12.90;69.20
46898;DHT22;32646;50.958;6.258;2023-04-25T14:11:24;14.20;67.70
46898;DHT22;32646;50.958;6.258;2023-04-25T14:13:51;14.20;66.30
46898;DHT22;32646;50.958;6.258;2023-04-25T14:16:18;14.40;64.80
46898;DHT22;32646;50.958;6.258;2023-04-25T14:18:45;14.40;63.70
46898;DHT22;32646;50.958;6.258;2023-04-25T14:21:12;14.80;61.10
46898;DHT22;32646;50.958;6.258;2023-04-25T14:23:38;14.60;61.90
46898;DHT22;32646;50.958;6.258;2023-04-25T14:26:05;13.70;64.00
46898;DHT22;32646;50.958;6.258;2023-04-25T14:28:32;13.80;68.50
46898;DHT22;32646;50.958;6.258;2023-04-25T14:30:58;14.40;65.40
46898;DHT22;32646;50.958;6.258;2023-04-25T14:33:25;15.10;62.10
46898;DHT22;32646;50.958;6.258;2023-04-25T14:35:51;15.70;60.60
46898;DHT22;32646;50.958;6.258;2023-04-25T14:38:18;15.70;60.30
46898;DHT22;32646;50.958;6.258;2023-04-25T14:40:44;15.60;59.00
46898;DHT22;32646;50.958;6.258;2023-04-25T14:43:11;15.50;57.00
46898;DHT22;32646;50.958;6.258;2023-04-25T14:45:37;15.80;55.30
46898;DHT22;32646;50.958;6.258;2023-04-25T14:48:04;15.80;54.30
46898;DHT22;32646;50.958;6.258;2023-04-25T14:50:31;15.60;53.60
46898;DHT22;32646;50.958;6.258;2023-04-25T14:52:57;14.70;58.70
46898;DHT22;32646;50.958;6.258;2023-04-25T14:55:24;15.30;54.50
46898;DHT22;32646;50.958;6.258;2023-04-25T14:57:51;14.30;57.30
46898;DHT22;32646;50.958;6.258;2023-04-25T15:00:19;14.40;60.20
46898;DHT22;32646;50.958;6.258;2023-04-25T15:02:46;14.30;57.40
46898;DHT22;32646;50.958;6.258;2023-04-25T15:05:13;14.10;60.60
46898;DHT22;32646;50.958;6.258;2023-04-25T15:07:39;14.30;60.60
46898;DHT22;32646;50.958;6.258;2023-04-25T15:10:07;14.50;59.40
46898;DHT22;32646;50.958;6.258;2023-04-25T15:12:34;15.10;57.40
46898;DHT22;32646;50.958;6.258;2023-04-25T15:15:01;15.40;55.90
46898;DHT22;32646;50.958;6.258;2023-04-25T15:17:27;15.10;57.70
46898;DHT22;32646;50.958;6.258;2023-04-25T15:19:54;14.60;56.00
46898;DHT22;32646;50.958;6.258;2023-04-25T15:22:20;13.70;57.30
46898;DHT22;32646;50.958;6.258;2023-04-25T15:24:47;13.20;59.00
46898;DHT22;32646;50.958;6.258;2023-04-25T15:27:14;12.60;61.10
46898;DHT22;32646;50.958;6.258;2023-04-25T15:29:40;12.10;59.90
46898;DHT22;32646;50.958;6.258;2023-04-25T15:32:07;11.80;62.50
46898;DHT22;32646;50.958;6.258;2023-04-25T15:34:33;12.00;61.90
46898;DHT22;32646;50.958;6.258;2023-04-25T15:37:01;11.70;63.60
46898;DHT22;32646;50.958;6.258;2023-04-25T15:39:28;11.60;63.70
46898;DHT22;32646;50.958;6.258;2023-04-25T15:41:54;11.70;67.40
46898;DHT22;32646;50.958;6.258;2023-04-25T15:44:21;11.60;67.50
46898;DHT22;32646;50.958;6.258;2023-04-25T15:46:47;11.50;68.40
46898;DHT22;32646;50.958;6.258;2023-04-25T15:49:14;11.70;69.90
46898;DHT22;32646;50.958;6.258;2023-04-25T15:51:41;11.50;69.00
46898;DHT22;32646;50.958;6.258;2023-04-25T15:54:07;11.70;69.90